Time;durP1;ratioP1;P1;durP2;ratioP2;P2;SDS_P1;SDS_P2;PMS_P1;PMS_P2;Temp;Humidity;BMP_temperature;BMP_pressure;BME280_temperature;BME280_humidity;BME280_pressure;Samples;Min_cycle;Max_cycle;Signal;HPM_P1;HPM_P2
2021/06/11 00:00:15;;;;;;;4.70;4.40;;;23.00;71.20;;;;;;5054066;28;20489;-62
2021/06/11 00:02:41;;;;;;;4.60;4.20;;;23.00;71.50;;;;;;5053671;28;20474;-62
2021/06/11 00:05:09;;;;;;;4.60;4.00;;;22.90;71.60;;;;;;5054048;28;20474;-62
2021/06/11 00:07:36;;;;;;;4.73;4.20;;;22.90;72.20;;;;;;5053899;28;20824;-62
2021/06/11 00:10:04;;;;;;;5.47;4.97;;;22.90;72.30;;;;;;5053513;28;21245;-62
2021/06/11 00:12:34;;;;;;;6.17;5.67;;;22.90;72.60;;;;;;5053925;28;20467;-62
2021/06/11 00:15:02;;;;;;;5.33;5.00;;;22.90;72.90;;;;;;5039479;28;20463;-62
2021/06/11 00:17:28;;;;;;;6.20;5.60;;;22.80;73.00;;;;;;5052801;28;20463;-62
2021/06/11 00:19:54;;;;;;;5.53;5.13;;;22.80;73.40;;;;;;5053479;28;20471;-63
2021/06/11 00:22:21;;;;;;;6.17;5.70;;;22.80;73.50;;;;;;5053672;28;20455;-62
2021/06/11 00:24:47;;;;;;;6.23;5.73;;;22.80;73.60;;;;;;5053262;28;20479;-62
2021/06/11 00:27:13;;;;;;;4.90;4.60;;;22.70;73.80;;;;;;5049041;28;20546;-62
2021/06/11 00:29:40;;;;;;;5.87;5.47;;;22.80;73.90;;;;;;5053443;28;20463;-62
2021/06/11 00:32:08;;;;;;;4.23;3.93;;;22.70;74.00;;;;;;5053048;28;20476;-62
2021/06/11 00:34:34;;;;;;;5.30;4.90;;;22.70;73.90;;;;;;5049344;28;20455;-62
2021/06/11 00:37:00;;;;;;;5.53;4.87;;;22.70;73.90;;;;;;5052957;28;21016;-62
2021/06/11 00:39:27;;;;;;;5.70;5.30;;;22.70;73.90;;;;;;5053458;28;20500;-62
2021/06/11 00:41:53;;;;;;;5.43;4.93;;;22.70;73.80;;;;;;5051467;28;20937;-62
2021/06/11 00:44:19;;;;;;;6.10;5.70;;;22.70;73.80;;;;;;5053667;28;20848;-62
2021/06/11 00:46:46;;;;;;;5.50;5.10;;;22.70;73.70;;;;;;5052851;28;20470;-62
2021/06/11 00:49:13;;;;;;;5.10;4.70;;;22.70;73.40;;;;;;5053115;28;20475;-62
2021/06/11 00:51:41;;;;;;;5.43;5.13;;;22.70;73.20;;;;;;5053233;28;20528;-61
2021/06/11 00:54:07;;;;;;;6.00;5.50;;;22.60;73.00;;;;;;5052785;28;20813;-62
2021/06/11 00:56:34;;;;;;;4.93;4.63;;;22.60;73.00;;;;;;5053218;28;20467;-61
2021/06/11 00:59:00;;;;;;;6.10;5.60;;;22.70;73.00;;;;;;5052163;28;20963;-62
2021/06/11 01:01:27;;;;;;;6.33;5.83;;;22.70;72.80;;;;;;5053048;28;20575;-62
2021/06/11 01:03:53;;;;;;;6.10;5.63;;;22.70;72.80;;;;;;5052123;28;20467;-62
2021/06/11 01:06:22;;;;;;;5.50;4.97;;;22.60;72.70;;;;;;5052914;28;20478;-62
2021/06/11 01:08:50;;;;;;;5.63;5.13;;;22.60;72.70;;;;;;5049707;28;20472;-62
2021/06/11 01:11:18;;;;;;;5.70;5.30;;;22.60;72.70;;;;;;5052817;28;20474;-62
2021/06/11 01:13:44;;;;;;;7.77;6.53;;;22.70;73.00;;;;;;5052815;28;20787;-62
2021/06/11 01:16:11;;;;;;;6.80;5.43;;;22.70;72.90;;;;;;5044018;28;20456;-62
2021/06/11 01:18:37;;;;;;;5.30;4.90;;;22.60;72.70;;;;;;5052785;28;20479;-63
2021/06/11 01:21:04;;;;;;;6.77;6.27;;;22.60;72.50;;;;;;5052104;28;20471;-62
2021/06/11 01:24:02;;;;;;;4.60;4.30;;;22.70;72.50;;;;;;5052607;28;20472;-62
2021/06/11 01:26:34;;;;;;;6.10;5.40;;;22.70;72.40;;;;;;5036987;28;20463;-63
2021/06/11 01:29:04;;;;;;;6.77;6.10;;;22.70;73.20;;;;;;5052106;28;20547;-62
2021/06/11 01:31:32;;;;;;;5.40;4.90;;;22.60;72.20;;;;;;5052184;28;21102;-63
2021/06/11 01:34:02;;;;;;;6.13;5.70;;;22.70;72.20;;;;;;5046473;28;20966;-63
2021/06/11 01:36:36;;;;;;;7.97;7.27;;;22.70;72.10;;;;;;5052115;28;20463;-62
2021/06/11 01:39:05;;;;;;;6.43;5.80;;;22.70;72.00;;;;;;5052407;28;20459;-63
2021/06/11 01:41:34;;;;;;;7.03;6.50;;;22.70;71.90;;;;;;5047820;28;20477;-63
2021/06/11 01:44:02;;;;;;;6.17;5.53;;;22.70;71.80;;;;;;5051046;28;20470;-63
2021/06/11 01:46:33;;;;;;;6.93;6.13;;;22.70;71.70;;;;;;5052045;28;20463;-63
2021/06/11 01:49:04;;;;;;;5.60;5.10;;;22.70;71.50;;;;;;5052361;28;20481;-63
2021/06/11 01:51:31;;;;;;;5.90;5.40;;;22.70;71.30;;;;;;5052016;28;20536;-63
2021/06/11 01:54:00;;;;;;;6.33;5.80;;;22.70;71.30;;;;;;5052524;28;20474;-63
2021/06/11 01:56:28;;;;;;;8.00;5.67;;;22.70;71.30;;;;;;5052370;28;20478;-63
2021/06/11 01:58:56;;;;;;;5.70;5.30;;;22.70;70.60;;;;;;5051293;28;20447;-63
2021/06/11 02:01:23;;;;;;;5.03;4.50;;;22.70;70.20;;;;;;5052385;28;20502;-62
2021/06/11 02:03:51;;;;;;;6.23;5.67;;;22.70;70.00;;;;;;5051615;28;20472;-63
2021/06/11 02:06:20;;;;;;;7.33;6.47;;;22.70;69.90;;;;;;5052214;28;20458;-63
2021/06/11 02:08:47;;;;;;;6.80;6.10;;;22.70;70.00;;;;;;5051697;28;20463;-63
2021/06/11 02:11:14;;;;;;;7.07;5.73;;;22.70;70.00;;;;;;5052076;28;20477;-63
2021/06/11 02:13:42;;;;;;;6.43;5.93;;;22.70;70.00;;;;;;5051841;28;20973;-63
2021/06/11 02:16:11;;;;;;;5.20;4.80;;;22.70;70.10;;;;;;5051928;28;20471;-63
2021/06/11 02:18:37;;;;;;;6.13;5.63;;;22.70;70.10;;;;;;5051809;28;20475;-63
2021/06/11 02:21:05;;;;;;;5.13;4.67;;;22.70;70.10;;;;;;5052076;28;20467;-63
2021/06/11 02:23:32;;;;;;;5.97;5.47;;;22.70;70.30;;;;;;5051699;28;20485;-63
2021/06/11 02:25:58;;;;;;;5.53;5.13;;;22.70;70.60;;;;;;5052106;28;20989;-63
2021/06/11 02:28:25;;;;;;;6.07;5.60;;;22.70;71.00;;;;;;5051115;28;20838;-63
2021/06/11 02:30:51;;;;;;;5.90;5.40;;;22.70;71.20;;;;;;5051115;28;20467;-63
2021/06/11 02:33:19;;;;;;;5.60;5.10;;;22.70;71.50;;;;;;5049836;28;20524;-63
2021/06/11 02:35:46;;;;;;;5.30;4.90;;;22.70;71.60;;;;;;5048362;28;20969;-63
2021/06/11 02:38:12;;;;;;;5.23;4.83;;;22.70;71.70;;;;;;5052027;28;20554;-63
2021/06/11 02:40:39;;;;;;;6.90;6.33;;;22.70;71.70;;;;;;5051160;28;20471;-64
2021/06/11 02:43:08;;;;;;;7.07;6.47;;;22.70;71.90;;;;;;5038234;28;20532;-63
2021/06/11 02:45:43;;;;;;;5.40;5.00;;;22.70;71.80;;;;;;5040600;28;20471;-63
2021/06/11 02:48:18;;;;;;;5.60;5.10;;;22.70;71.90;;;;;;5049552;28;20470;-63
2021/06/11 02:50:52;;;;;;;8.00;7.20;;;22.70;71.90;;;;;;5049787;28;20463;-63
2021/06/11 02:53:25;;;;;;;5.50;5.13;;;22.70;72.00;;;;;;5051691;28;20527;-62
2021/06/11 02:55:55;;;;;;;5.73;5.20;;;22.70;72.10;;;;;;5052769;28;20866;-63
2021/06/11 02:58:24;;;;;;;6.97;5.40;;;22.70;72.30;;;;;;5053278;28;20467;-63
2021/06/11 03:00:51;;;;;;;8.67;7.57;;;22.70;72.40;;;;;;5053986;28;20546;-62
2021/06/11 03:03:20;;;;;;;10.50;9.50;;;22.70;72.60;;;;;;5053734;28;20463;-63
2021/06/11 03:05:51;;;;;;;8.17;7.37;;;22.70;72.70;;;;;;5054068;28;20471;-62
2021/06/11 03:08:22;;;;;;;7.60;7.00;;;22.70;72.80;;;;;;5048705;28;20886;-63
2021/06/11 03:10:53;;;;;;;7.27;6.63;;;22.70;73.00;;;;;;5047237;28;20847;-63
2021/06/11 03:13:21;;;;;;;6.90;6.30;;;22.70;73.10;;;;;;5055161;28;20560;-63
2021/06/11 03:15:47;;;;;;;8.03;7.33;;;22.80;73.50;;;;;;5054217;28;20486;-63
2021/06/11 03:18:26;;;;;;;6.70;6.20;;;22.80;73.70;;;;;;5055097;28;20471;-63
2021/06/11 03:20:55;;;;;;;13.77;12.53;;;22.80;73.80;;;;;;5054152;28;20961;-62
2021/06/11 03:23:27;;;;;;;7.90;7.20;;;22.80;73.90;;;;;;5054860;28;20467;-63
2021/06/11 03:25:58;;;;;;;8.17;7.37;;;22.80;74.20;;;;;;5054057;28;20467;-63
2021/06/11 03:28:31;;;;;;;6.80;6.20;;;22.80;74.30;;;;;;5054969;28;20468;-63
2021/06/11 03:31:01;;;;;;;6.83;6.23;;;22.80;74.40;;;;;;5054378;28;20471;-63
2021/06/11 03:33:30;;;;;;;6.70;6.20;;;22.80;74.60;;;;;;5051305;28;20465;-63
2021/06/11 03:36:04;;;;;;;8.13;6.20;;;22.80;74.70;;;;;;5052911;28;20467;-63
2021/06/11 03:38:31;;;;;;;5.47;5.07;;;22.80;74.80;;;;;;5054129;28;20471;-63
2021/06/11 03:41:00;;;;;;;5.90;5.50;;;22.80;75.00;;;;;;5054122;28;20540;-63
2021/06/11 03:43:28;;;;;;;5.57;5.17;;;22.80;75.10;;;;;;5039601;28;20466;-63
2021/06/11 03:45:56;;;;;;;5.10;4.70;;;22.80;75.20;;;;;;5041292;28;20478;-63
2021/06/11 03:48:26;;;;;;;6.67;6.10;;;22.80;75.40;;;;;;5054475;28;20471;-63
2021/06/11 03:50:53;;;;;;;6.57;6.07;;;22.80;75.60;;;;;;5054140;28;20501;-63
2021/06/11 03:53:24;;;;;;;10.63;9.63;;;22.80;75.80;;;;;;5054455;28;20968;-63
2021/06/11 03:55:55;;;;;;;6.60;5.87;;;22.90;76.10;;;;;;5054120;28;20474;-63
2021/06/11 03:58:26;;;;;;;5.93;5.43;;;22.90;76.20;;;;;;5053969;28;20477;-62
2021/06/11 04:00:53;;;;;;;17.53;15.73;;;22.90;76.40;;;;;;5053974;28;20499;-63
2021/06/11 04:03:20;;;;;;;8.67;7.97;;;22.90;76.50;;;;;;5053564;28;20552;-63
2021/06/11 04:05:46;;;;;;;14.07;12.70;;;22.90;76.60;;;;;;5053339;28;20972;-63
2021/06/11 04:08:17;;;;;;;8.63;7.93;;;23.00;76.90;;;;;;5053291;28;20467;-63
2021/06/11 04:10:50;;;;;;;10.43;9.40;;;23.00;77.20;;;;;;5053762;28;20532;-63
2021/06/11 04:13:21;;;;;;;8.37;7.77;;;23.00;77.10;;;;;;5054051;28;20477;-63
2021/06/11 04:15:50;;;;;;;7.70;7.10;;;23.00;77.10;;;;;;5053687;28;20468;-63
2021/06/11 04:18:22;;;;;;;6.60;6.00;;;23.00;77.10;;;;;;5040994;28;20554;-63
2021/06/11 04:20:53;;;;;;;6.90;6.30;;;23.00;77.20;;;;;;5053358;28;20471;-63
2021/06/11 04:23:24;;;;;;;7.10;6.60;;;23.00;77.40;;;;;;5053840;28;20466;-63
2021/06/11 04:25:53;;;;;;;10.33;9.30;;;23.00;77.60;;;;;;5053073;28;20502;-63
2021/06/11 04:28:22;;;;;;;9.43;8.47;;;23.00;77.50;;;;;;5053988;28;20483;-63
2021/06/11 04:30:50;;;;;;;7.03;6.43;;;23.00;77.50;;;;;;5053339;28;20532;-63
2021/06/11 04:33:22;;;;;;;9.83;8.93;;;23.10;77.40;;;;;;5050970;28;20467;-63
2021/06/11 04:35:49;;;;;;;7.40;6.70;;;23.10;77.20;;;;;;5050232;28;20551;-63
2021/06/11 04:38:15;;;;;;;7.70;7.10;;;23.20;77.20;;;;;;5053229;28;20551;-63
2021/06/11 04:40:42;;;;;;;6.50;6.00;;;23.20;77.00;;;;;;5053046;28;20475;-63
2021/06/11 04:43:10;;;;;;;5.20;4.73;;;23.20;76.80;;;;;;5048021;28;20463;-63
2021/06/11 04:45:37;;;;;;;5.93;5.43;;;23.20;76.80;;;;;;5053044;28;20479;-63
2021/06/11 04:48:03;;;;;;;7.33;6.70;;;23.30;76.80;;;;;;5052864;28;20467;-62
2021/06/11 04:50:30;;;;;;;5.93;5.43;;;23.30;76.80;;;;;;5053457;28;20463;-63
2021/06/11 04:52:56;;;;;;;5.57;5.17;;;23.30;76.80;;;;;;5052883;28;20474;-63
2021/06/11 04:55:22;;;;;;;5.67;5.17;;;23.20;76.80;;;;;;5053335;28;20479;-63
2021/06/11 04:57:50;;;;;;;6.27;5.77;;;23.30;77.00;;;;;;5052649;28;20475;-63
2021/06/11 05:00:19;;;;;;;5.93;5.43;;;23.30;77.10;;;;;;5053150;28;20467;-63
2021/06/11 05:02:45;;;;;;;4.97;4.57;;;23.30;77.20;;;;;;5052834;28;20471;-62
2021/06/11 05:05:12;;;;;;;6.77;6.27;;;23.30;77.30;;;;;;5052879;28;20546;-63
2021/06/11 05:07:38;;;;;;;6.30;5.60;;;23.30;77.30;;;;;;5052933;28;20550;-63
2021/06/11 05:10:06;;;;;;;5.77;5.47;;;23.30;77.30;;;;;;5052676;28;20467;-63
2021/06/11 05:12:34;;;;;;;5.00;4.70;;;23.30;77.30;;;;;;5053074;28;20554;-63
2021/06/11 05:15:01;;;;;;;6.60;6.10;;;23.40;77.30;;;;;;5052205;28;20491;-63
2021/06/11 05:17:28;;;;;;;6.73;6.13;;;23.50;77.50;;;;;;5052915;28;20471;-63
2021/06/11 05:19:55;;;;;;;5.80;5.30;;;23.50;77.40;;;;;;5052297;28;20478;-63
2021/06/11 05:22:21;;;;;;;6.33;5.50;;;23.50;77.30;;;;;;5052888;28;20467;-63
2021/06/11 05:24:48;;;;;;;6.87;6.27;;;23.60;77.30;;;;;;5052422;28;20466;-63
2021/06/11 05:27:15;;;;;;;5.10;4.70;;;23.60;77.30;;;;;;5052616;28;20471;-63
2021/06/11 05:29:42;;;;;;;5.50;5.10;;;23.70;77.40;;;;;;5052840;28;20474;-63
2021/06/11 05:32:09;;;;;;;6.77;4.90;;;23.70;77.10;;;;;;5052288;28;20459;-63
2021/06/11 05:34:36;;;;;;;7.50;6.90;;;23.80;76.30;;;;;;5045666;28;20487;-63
2021/06/11 05:37:05;;;;;;;6.17;5.67;;;23.80;75.30;;;;;;5052319;28;20463;-62
2021/06/11 05:39:31;;;;;;;6.20;5.70;;;23.90;74.60;;;;;;5052424;28;20555;-62
2021/06/11 05:41:58;;;;;;;6.30;5.80;;;23.90;73.80;;;;;;5046549;28;20472;-62
2021/06/11 05:44:25;;;;;;;5.40;4.10;;;23.90;73.00;;;;;;5042653;28;20547;-62
2021/06/11 05:46:51;;;;;;;5.03;4.63;;;24.00;71.60;;;;;;5049944;28;20478;-62
2021/06/11 05:49:17;;;;;;;5.43;4.90;;;24.10;71.30;;;;;;5052671;28;20463;-62
2021/06/11 05:51:45;;;;;;;5.07;4.67;;;24.20;69.70;;;;;;5052665;28;20467;-62
2021/06/11 05:54:11;;;;;;;3.80;3.50;;;24.20;69.40;;;;;;5051994;28;20462;-63
2021/06/11 05:56:38;;;;;;;5.00;4.60;;;24.30;69.30;;;;;;5052525;28;20474;-62
2021/06/11 05:59:05;;;;;;;4.30;4.00;;;24.30;69.10;;;;;;5051812;28;20516;-62
2021/06/11 06:01:31;;;;;;;4.33;3.93;;;24.40;69.20;;;;;;5052271;28;20459;-63
2021/06/11 06:03:57;;;;;;;5.57;5.10;;;24.50;69.10;;;;;;5051941;28;20475;-62
2021/06/11 06:06:24;;;;;;;6.87;6.27;;;24.50;67.30;;;;;;5052496;28;20539;-62
2021/06/11 06:08:52;;;;;;;5.17;4.77;;;24.60;67.30;;;;;;5047699;28;20874;-62
2021/06/11 06:11:18;;;;;;;6.23;5.70;;;24.70;67.30;;;;;;5052213;28;20467;-63
2021/06/11 06:13:45;;;;;;;7.60;6.80;;;24.80;67.40;;;;;;5052216;28;20463;-62
2021/06/11 06:16:11;;;;;;;9.80;8.97;;;25.00;67.80;;;;;;5051785;28;20536;-62
2021/06/11 06:18:38;;;;;;;9.70;8.30;;;25.10;67.80;;;;;;5052089;28;20528;-62
2021/06/11 06:21:05;;;;;;;7.20;6.60;;;25.30;65.40;;;;;;5051590;28;20463;-63
2021/06/11 06:23:31;;;;;;;7.23;5.07;;;25.50;65.20;;;;;;5051862;28;20477;-62
2021/06/11 06:25:59;;;;;;;5.43;4.93;;;25.60;64.90;;;;;;5051899;28;20471;-62
2021/06/11 06:28:26;;;;;;;6.37;5.20;;;25.70;64.90;;;;;;5054819;28;20836;-62
2021/06/11 06:30:52;;;;;;;5.87;4.90;;;25.80;64.70;;;;;;5055556;28;20471;-62
2021/06/11 06:33:18;;;;;;;6.20;5.27;;;26.00;63.90;;;;;;5054071;28;20467;-61
2021/06/11 06:35:45;;;;;;;6.43;4.10;;;26.10;63.90;;;;;;5055905;28;20473;-63
2021/06/11 06:38:13;;;;;;;5.70;5.20;;;26.10;64.00;;;;;;5055263;28;20520;-62
2021/06/11 06:40:39;;;;;;;7.90;5.93;;;26.30;63.80;;;;;;5055877;28;20467;-62
2021/06/11 06:43:07;;;;;;;9.20;8.27;;;26.40;63.30;;;;;;5055088;28;20478;-62
2021/06/11 06:45:34;;;;;;;5.67;5.27;;;26.40;63.00;;;;;;5043997;28;20467;-63
2021/06/11 06:48:01;;;;;;;6.63;6.03;;;26.50;61.90;;;;;;5055014;28;20795;-63
2021/06/11 06:50:28;;;;;;;8.00;7.20;;;26.60;62.20;;;;;;5055581;28;20466;-63
2021/06/11 06:52:55;;;;;;;6.20;5.67;;;26.70;62.20;;;;;;5055204;28;20536;-62
2021/06/11 06:55:22;;;;;;;7.80;6.40;;;26.90;62.00;;;;;;5055601;28;20486;-62
2021/06/11 06:57:49;;;;;;;5.77;5.27;;;27.10;61.40;;;;;;5055200;28;20479;-62
2021/06/11 07:00:17;;;;;;;7.60;6.87;;;27.20;60.60;;;;;;5055077;28;20466;-62
2021/06/11 07:02:43;;;;;;;5.73;5.03;;;27.40;60.20;;;;;;5055296;28;20471;-62
2021/06/11 07:05:11;;;;;;;6.73;6.13;;;27.60;59.80;;;;;;5054860;28;20546;-62
2021/06/11 07:07:37;;;;;;;7.20;5.40;;;27.80;59.00;;;;;;5055381;28;20477;-62
2021/06/11 07:10:05;;;;;;;5.63;5.13;;;27.90;58.40;;;;;;5054850;28;20489;-63
2021/06/11 07:12:32;;;;;;;7.53;6.97;;;28.00;57.80;;;;;;5055190;28;20459;-62
2021/06/11 07:14:58;;;;;;;6.43;5.77;;;28.00;57.40;;;;;;5054707;28;21011;-62
2021/06/11 07:17:26;;;;;;;5.67;5.17;;;28.00;57.60;;;;;;5054927;28;20467;-62
2021/06/11 07:19:53;;;;;;;7.23;6.57;;;28.00;58.50;;;;;;5055228;28;20471;-62
2021/06/11 07:22:19;;;;;;;7.37;6.03;;;28.00;58.00;;;;;;5054631;28;20470;-63
2021/06/11 07:24:45;;;;;;;7.10;5.60;;;28.10;57.70;;;;;;5054929;28;20482;-63
2021/06/11 07:27:12;;;;;;;5.30;4.90;;;28.20;57.60;;;;;;5054510;28;20574;-62
2021/06/11 07:29:43;;;;;;;4.90;4.50;;;28.20;57.40;;;;;;5054730;28;21011;-63
2021/06/11 07:32:09;;;;;;;8.30;6.40;;;28.40;57.30;;;;;;5054216;28;20490;-62
2021/06/11 07:34:37;;;;;;;9.03;8.30;;;28.50;57.00;;;;;;5053508;28;20536;-62
2021/06/11 07:37:04;;;;;;;8.10;7.50;;;28.70;56.70;;;;;;5054142;28;20485;-62
2021/06/11 07:39:30;;;;;;;5.90;5.40;;;28.80;56.50;;;;;;5054754;28;20467;-63
2021/06/11 07:41:56;;;;;;;5.90;5.40;;;28.90;56.20;;;;;;5054193;28;20475;-62
2021/06/11 07:44:23;;;;;;;7.00;6.27;;;29.00;55.90;;;;;;5054392;28;20497;-63
2021/06/11 07:46:49;;;;;;;5.87;5.37;;;29.10;55.30;;;;;;5054477;28;20987;-62
2021/06/11 07:49:16;;;;;;;7.73;7.00;;;29.20;55.30;;;;;;5054172;28;20473;-62
2021/06/11 07:51:43;;;;;;;5.50;4.90;;;29.20;55.10;;;;;;5054392;28;20478;-62
2021/06/11 07:54:10;;;;;;;5.17;4.77;;;29.20;55.10;;;;;;5054070;28;20467;-62
2021/06/11 07:56:37;;;;;;;6.23;5.03;;;29.30;55.40;;;;;;5054463;28;20871;-62
2021/06/11 07:59:03;;;;;;;5.37;4.93;;;29.30;55.20;;;;;;5053862;28;20548;-62
2021/06/11 08:01:31;;;;;;;6.53;5.90;;;29.50;55.10;;;;;;5054214;28;20482;-62
2021/06/11 08:03:58;;;;;;;6.73;6.13;;;29.50;55.20;;;;;;5053860;28;20474;-62
2021/06/11 08:06:24;;;;;;;7.23;6.63;;;29.60;54.60;;;;;;5054028;28;20464;-62
2021/06/11 08:08:52;;;;;;;7.80;7.20;;;29.60;54.80;;;;;;5053943;28;20479;-62
2021/06/11 08:11:18;;;;;;;7.60;5.70;;;29.60;55.00;;;;;;5053851;28;20475;-62
2021/06/11 08:13:44;;;;;;;4.63;4.33;;;29.60;54.50;;;;;;5054134;28;20808;-62
2021/06/11 08:16:11;;;;;;;6.17;5.30;;;29.50;54.40;;;;;;5053604;28;20501;-63
2021/06/11 08:18:37;;;;;;;6.60;6.10;;;29.50;54.30;;;;;;5054075;28;20467;-62
2021/06/11 08:21:04;;;;;;;8.03;7.33;;;29.60;54.50;;;;;;5052488;28;20521;-62
2021/06/11 08:23:30;;;;;;;5.97;5.43;;;29.60;54.30;;;;;;5054014;28;20501;-62
2021/06/11 08:25:58;;;;;;;5.23;4.83;;;29.70;54.20;;;;;;5053798;28;20485;-62
2021/06/11 08:28:24;;;;;;;7.00;6.30;;;29.80;54.40;;;;;;5053374;28;20464;-62
2021/06/11 08:30:50;;;;;;;6.93;6.23;;;29.90;53.90;;;;;;5053963;28;20609;-63
2021/06/11 08:33:17;;;;;;;5.50;5.00;;;29.90;54.10;;;;;;5051589;28;20538;-63
2021/06/11 08:35:43;;;;;;;7.80;6.20;;;30.00;53.70;;;;;;5053728;28;20471;-62
2021/06/11 08:38:10;;;;;;;5.07;4.67;;;30.10;53.60;;;;;;5053097;28;20890;-62
2021/06/11 08:40:36;;;;;;;5.30;4.80;;;30.20;53.50;;;;;;5053556;28;20487;-62
2021/06/11 08:43:06;;;;;;;5.97;4.60;;;30.30;53.30;;;;;;5052804;28;20471;-62
2021/06/11 08:45:33;;;;;;;5.80;5.40;;;30.30;53.40;;;;;;5053620;28;20470;-63
2021/06/11 08:48:00;;;;;;;5.20;4.57;;;30.30;53.40;;;;;;5053218;28;21106;-62
2021/06/11 08:50:29;;;;;;;5.40;4.90;;;30.30;53.00;;;;;;5052670;28;20459;-62
2021/06/11 08:52:56;;;;;;;6.30;5.80;;;30.30;53.20;;;;;;5053402;28;20483;-62
2021/06/11 08:55:23;;;;;;;5.70;5.20;;;30.20;53.00;;;;;;5052961;28;20480;-62
2021/06/11 08:57:49;;;;;;;5.50;5.03;;;30.10;52.80;;;;;;5053218;28;20471;-62
2021/06/11 09:00:18;;;;;;;5.43;5.03;;;30.10;53.10;;;;;;5052589;28;20501;-62
2021/06/11 09:03:13;;;;;;;6.00;5.60;;;30.00;53.10;;;;;;5053203;28;20467;-62
2021/06/11 09:05:41;;;;;;;5.47;4.97;;;29.90;53.30;;;;;;5041203;28;20807;-62
2021/06/11 09:08:12;;;;;;;4.77;4.43;;;29.80;53.30;;;;;;5061872;28;20796;-63
2021/06/11 09:10:38;;;;;;;6.17;5.57;;;29.70;53.30;;;;;;5053053;28;20945;-62
2021/06/11 09:13:05;;;;;;;5.13;4.23;;;29.60;53.00;;;;;;5052445;28;20937;-63
2021/06/11 09:15:33;;;;;;;3.93;3.73;;;29.60;52.90;;;;;;5053210;28;20790;-62
2021/06/11 09:17:59;;;;;;;4.47;4.03;;;29.60;52.40;;;;;;5052160;28;20485;-63
2021/06/11 09:20:28;;;;;;;4.67;4.37;;;29.60;52.50;;;;;;5053033;28;20529;-62
2021/06/11 09:22:56;;;;;;;4.97;4.60;;;29.50;52.60;;;;;;5052550;28;20475;-62
2021/06/11 09:25:29;;;;;;;4.97;4.57;;;29.50;52.70;;;;;;5052797;28;20471;-63
2021/06/11 09:27:56;;;;;;;10.27;6.40;;;29.40;52.70;;;;;;5052182;28;20550;-63
2021/06/11 09:30:25;;;;;;;5.50;5.00;;;29.20;53.00;;;;;;5052892;28;20467;-62
2021/06/11 09:32:58;;;;;;;5.70;4.03;;;29.20;52.60;;;;;;5052310;28;20471;-62
2021/06/11 09:35:31;;;;;;;4.77;4.43;;;29.20;51.40;;;;;;5044603;28;20995;-63
2021/06/11 09:38:10;;;;;;;4.83;4.53;;;29.10;51.60;;;;;;5052110;28;20475;-62
2021/06/11 09:40:36;;;;;;;4.20;3.90;;;29.10;51.30;;;;;;5052536;28;20471;-62
2021/06/11 09:43:04;;;;;;;3.93;3.73;;;29.10;50.90;;;;;;5052218;28;20472;-62
2021/06/11 09:45:30;;;;;;;4.33;3.93;;;29.10;50.60;;;;;;5050611;28;20966;-62
2021/06/11 09:47:58;;;;;;;5.23;4.73;;;29.10;49.90;;;;;;5052129;28;20463;-63
2021/06/11 09:50:26;;;;;;;3.67;3.47;;;29.10;49.80;;;;;;5052275;28;20467;-62
2021/06/11 09:52:55;;;;;;;4.47;4.07;;;29.10;49.70;;;;;;5052091;28;20555;-63
2021/06/11 09:55:28;;;;;;;5.30;4.90;;;29.10;49.80;;;;;;5052465;28;20467;-62
2021/06/11 09:58:13;;;;;;;4.37;3.97;;;29.10;50.60;;;;;;5052011;28;20479;-63
2021/06/11 10:00:42;;;;;;;3.90;3.60;;;29.10;51.10;;;;;;5052555;28;20960;-62
2021/06/11 10:03:15;;;;;;;5.80;5.40;;;29.10;50.90;;;;;;5054272;28;20463;-63
2021/06/11 10:05:43;;;;;;;5.70;5.20;;;29.10;51.20;;;;;;5056482;28;20523;-63
2021/06/11 10:08:10;;;;;;;6.97;5.20;;;29.00;51.50;;;;;;5055758;28;20463;-63
2021/06/11 10:10:37;;;;;;;4.33;4.03;;;29.00;51.50;;;;;;5056352;28;20463;-62
2021/06/11 10:13:05;;;;;;;4.47;4.17;;;29.10;51.10;;;;;;5055686;28;20470;-63
2021/06/11 10:15:32;;;;;;;4.00;3.70;;;29.10;50.80;;;;;;5056342;28;20467;-63
2021/06/11 10:17:59;;;;;;;3.20;2.90;;;29.00;50.10;;;;;;5055611;28;20828;-62
2021/06/11 10:20:27;;;;;;;3.70;3.43;;;29.00;48.00;;;;;;5056294;28;20797;-63
2021/06/11 10:22:54;;;;;;;3.63;3.00;;;29.00;48.20;;;;;;5055817;28;21070;-63
2021/06/11 10:25:21;;;;;;;5.03;3.07;;;29.00;48.30;;;;;;5056034;28;20463;-62
2021/06/11 10:27:48;;;;;;;3.67;2.20;;;29.00;48.80;;;;;;5056120;28;20471;-63
2021/06/11 10:30:15;;;;;;;3.40;3.10;;;29.00;49.10;;;;;;5056077;28;21550;-63
2021/06/11 10:32:46;;;;;;;3.00;2.80;;;28.90;49.80;;;;;;5055735;28;20471;-63
2021/06/11 10:35:14;;;;;;;3.60;3.30;;;28.90;50.30;;;;;;5047539;28;20475;-62
2021/06/11 10:37:45;;;;;;;3.00;2.80;;;28.90;50.60;;;;;;5055937;28;20471;-62
2021/06/11 10:40:16;;;;;;;4.20;3.87;;;28.80;50.90;;;;;;5055457;28;20501;-62
2021/06/11 10:42:43;;;;;;;2.13;2.03;;;28.80;51.80;;;;;;5055622;28;20475;-63
2021/06/11 10:45:12;;;;;;;3.30;3.10;;;28.90;50.90;;;;;;5053273;28;20475;-62
2021/06/11 10:47:52;;;;;;;3.30;3.10;;;28.80;51.00;;;;;;5055354;28;20521;-63
2021/06/11 10:50:32;;;;;;;5.03;2.90;;;28.80;51.00;;;;;;5055535;28;20967;-62
2021/06/11 10:53:11;;;;;;;3.10;2.90;;;28.80;51.10;;;;;;5055188;28;20811;-63
2021/06/11 10:55:44;;;;;;;3.40;3.20;;;28.70;51.30;;;;;;5055735;28;20466;-63
2021/06/11 10:58:22;;;;;;;3.57;3.27;;;28.70;51.80;;;;;;5041375;28;20475;-62
2021/06/11 11:00:49;;;;;;;3.83;3.53;;;28.70;52.30;;;;;;5054263;28;20577;-62
2021/06/11 11:03:27;;;;;;;3.37;3.10;;;28.60;52.50;;;;;;5053858;28;20467;-63
2021/06/11 11:05:54;;;;;;;3.80;3.50;;;28.60;52.50;;;;;;5053940;28;20796;-63
2021/06/11 11:08:22;;;;;;;4.10;3.70;;;28.60;52.70;;;;;;5053957;28;20516;-63
2021/06/11 11:10:51;;;;;;;8.00;7.30;;;28.60;53.00;;;;;;5054199;28;20467;-63
2021/06/11 11:13:19;;;;;;;5.63;4.47;;;28.60;52.90;;;;;;5053273;28;21004;-62
2021/06/11 11:15:48;;;;;;;4.13;3.67;;;28.60;52.60;;;;;;5054170;28;20477;-63
2021/06/11 11:18:18;;;;;;;5.43;3.70;;;28.60;52.40;;;;;;5053324;28;20479;-63
2021/06/11 11:20:44;;;;;;;3.00;2.70;;;28.70;52.20;;;;;;5053964;28;20501;-63
2021/06/11 11:23:12;;;;;;;2.97;2.77;;;28.60;52.20;;;;;;5050441;28;20467;-62
2021/06/11 11:25:41;;;;;;;5.73;2.77;;;28.60;52.10;;;;;;5053644;28;20472;-62
2021/06/11 11:28:09;;;;;;;2.67;2.37;;;28.60;52.00;;;;;;5053481;28;21030;-62
2021/06/11 11:30:36;;;;;;;3.57;3.27;;;28.60;52.00;;;;;;5053801;28;20458;-62
2021/06/11 11:33:05;;;;;;;3.80;3.10;;;28.70;52.10;;;;;;5053059;28;20475;-63
2021/06/11 11:35:33;;;;;;;3.60;3.30;;;28.70;51.20;;;;;;5053651;28;20467;-63
2021/06/11 11:38:00;;;;;;;3.77;3.47;;;28.70;51.50;;;;;;5053312;28;20478;-62
2021/06/11 11:40:28;;;;;;;5.83;3.40;;;28.70;52.00;;;;;;5053727;28;20467;-62
2021/06/11 11:42:57;;;;;;;3.77;3.43;;;28.70;52.10;;;;;;5040640;28;20460;-62
2021/06/11 11:45:26;;;;;;;4.33;3.77;;;28.80;52.40;;;;;;5053223;28;20455;-63
2021/06/11 11:47:53;;;;;;;4.17;3.67;;;28.70;52.30;;;;;;5053307;28;20562;-63
2021/06/11 11:50:19;;;;;;;3.60;3.30;;;28.80;52.30;;;;;;5053062;28;20462;-63
2021/06/11 11:52:46;;;;;;;2.77;2.57;;;28.80;52.40;;;;;;5053399;28;20471;-62
2021/06/11 11:55:13;;;;;;;3.80;3.50;;;28.80;52.30;;;;;;5053182;28;20806;-63
2021/06/11 11:57:41;;;;;;;3.30;2.90;;;28.80;52.50;;;;;;4527185;28;15087093;-63
2021/06/11 12:00:10;;;;;;;4.43;4.03;;;28.80;52.50;;;;;;5022239;28;20468;-62
2021/06/11 12:02:37;;;;;;;5.10;3.43;;;28.80;52.40;;;;;;5054226;28;20463;-62
2021/06/11 12:05:04;;;;;;;3.67;3.33;;;28.80;52.30;;;;;;5053867;28;20488;-63
2021/06/11 12:07:30;;;;;;;3.57;3.27;;;28.80;52.00;;;;;;5054165;28;20471;-62
2021/06/11 12:09:58;;;;;;;3.47;3.17;;;28.80;52.30;;;;;;5054380;28;20983;-63
2021/06/11 12:12:29;;;;;;;7.60;3.23;;;28.80;52.60;;;;;;5053749;28;20470;-63
2021/06/11 12:14:56;;;;;;;3.53;2.60;;;28.80;52.50;;;;;;5054310;28;20818;-63
2021/06/11 12:17:23;;;;;;;2.80;2.47;;;28.80;52.20;;;;;;5053624;28;20532;-63
2021/06/11 12:19:50;;;;;;;4.90;2.67;;;28.80;51.40;;;;;;5054137;28;20471;-63
2021/06/11 12:22:16;;;;;;;3.80;3.03;;;28.80;51.20;;;;;;5053442;28;20463;-63
2021/06/11 12:24:43;;;;;;;3.90;3.20;;;28.70;51.10;;;;;;5053008;28;20475;-63
2021/06/11 12:27:10;;;;;;;5.03;3.47;;;28.70;51.10;;;;;;5053372;28;20973;-63
2021/06/11 12:29:36;;;;;;;5.43;2.93;;;28.60;51.10;;;;;;5053756;28;20467;-63
2021/06/11 12:32:04;;;;;;;2.40;2.20;;;28.60;51.10;;;;;;5053257;28;20965;-63
2021/06/11 12:34:31;;;;;;;2.90;2.70;;;28.60;51.20;;;;;;5053509;28;20464;-63
2021/06/11 12:36:58;;;;;;;2.70;2.10;;;28.60;51.00;;;;;;5053480;28;20475;-63
2021/06/11 12:39:24;;;;;;;3.00;2.67;;;28.60;50.90;;;;;;5053278;28;20474;-63
2021/06/11 12:41:54;;;;;;;2.50;2.30;;;28.60;50.60;;;;;;5048990;28;21057;-63
2021/06/11 12:44:21;;;;;;;2.80;2.40;;;28.60;50.60;;;;;;5045901;28;20467;-63
2021/06/11 12:46:49;;;;;;;2.67;2.47;;;28.70;50.90;;;;;;5053163;28;20477;-63
2021/06/11 12:49:17;;;;;;;2.67;2.20;;;28.70;50.90;;;;;;5052821;28;20478;-63